sensor_id;sensor_type;location;lat;lon;timestamp;pressure;altitude;pressure_sealevel;temperature;humidity
50632;BME280;49583;45.590;-122.498;2023-09-19T00:02:04;101341.95;;;27.02;28.47
50632;BME280;49583;45.590;-122.498;2023-09-19T00:04:19;101345.98;;;26.96;28.59
50632;BME280;49583;45.590;-122.498;2023-09-19T00:06:39;101343.54;;;26.91;28.55
50632;BME280;49583;45.590;-122.498;2023-09-19T00:08:53;101339.64;;;26.87;28.30
50632;BME280;49583;45.590;-122.498;2023-09-19T00:11:05;101336.82;;;26.82;28.28
50632;BME280;49583;45.590;-122.498;2023-09-19T00:13:19;101339.78;;;26.78;28.53
50632;BME280;49583;45.590;-122.498;2023-09-19T00:15:36;101339.04;;;26.75;28.67
50632;BME280;49583;45.590;-122.498;2023-09-19T00:17:49;101337.03;;;26.70;28.66
50632;BME280;49583;45.590;-122.498;2023-09-19T00:20:03;101339.06;;;26.60;27.85
50632;BME280;49583;45.590;-122.498;2023-09-19T00:22:22;101336.54;;;26.49;28.04
50632;BME280;49583;45.590;-122.498;2023-09-19T00:24:37;101339.33;;;26.40;28.31
50632;BME280;49583;45.590;-122.498;2023-09-19T00:26:50;101341.45;;;26.34;28.40
50632;BME280;49583;45.590;-122.498;2023-09-19T00:29:04;101344.18;;;26.27;28.31
50632;BME280;49583;45.590;-122.498;2023-09-19T00:31:18;101343.31;;;26.21;28.33
50632;BME280;49583;45.590;-122.498;2023-09-19T00:33:35;101334.55;;;26.17;28.44
50632;BME280;49583;45.590;-122.498;2023-09-19T00:35:51;101340.52;;;26.08;28.48
50632;BME280;49583;45.590;-122.498;2023-09-19T00:38:05;101334.95;;;26.02;28.66
50632;BME280;49583;45.590;-122.498;2023-09-19T00:40:17;101330.89;;;25.93;28.49
50632;BME280;49583;45.590;-122.498;2023-09-19T00:42:32;101325.89;;;25.84;28.66
50632;BME280;49583;45.590;-122.498;2023-09-19T00:44:45;101326.45;;;25.77;28.67
50632;BME280;49583;45.590;-122.498;2023-09-19T00:46:58;101329.29;;;25.70;28.76
50632;BME280;49583;45.590;-122.498;2023-09-19T00:49:12;101332.96;;;25.63;28.76
50632;BME280;49583;45.590;-122.498;2023-09-19T00:51:26;101334.05;;;25.55;29.10
50632;BME280;49583;45.590;-122.498;2023-09-19T00:53:40;101331.67;;;25.49;29.01
50632;BME280;49583;45.590;-122.498;2023-09-19T00:55:56;101324.92;;;25.45;28.82
50632;BME280;49583;45.590;-122.498;2023-09-19T00:58:12;101328.50;;;25.40;28.81
50632;BME280;49583;45.590;-122.498;2023-09-19T01:00:25;101326.65;;;25.35;28.91
50632;BME280;49583;45.590;-122.498;2023-09-19T01:02:38;101320.23;;;25.33;28.96
50632;BME280;49583;45.590;-122.498;2023-09-19T01:04:51;101318.58;;;25.29;29.22
50632;BME280;49583;45.590;-122.498;2023-09-19T01:07:03;101315.06;;;25.23;29.33
50632;BME280;49583;45.590;-122.498;2023-09-19T01:09:17;101318.60;;;25.17;29.42
50632;BME280;49583;45.590;-122.498;2023-09-19T01:11:35;101311.30;;;25.06;29.51
50632;BME280;49583;45.590;-122.498;2023-09-19T01:14:01;101320.45;;;25.06;29.48
50632;BME280;49583;45.590;-122.498;2023-09-19T01:16:23;101315.88;;;25.01;29.63
50632;BME280;49583;45.590;-122.498;2023-09-19T01:18:47;101316.34;;;24.95;29.70
50632;BME280;49583;45.590;-122.498;2023-09-19T01:21:11;101314.84;;;24.88;29.82
50632;BME280;49583;45.590;-122.498;2023-09-19T01:23:29;101313.02;;;24.78;29.92
50632;BME280;49583;45.590;-122.498;2023-09-19T01:26:07;101318.52;;;24.73;30.01
50632;BME280;49583;45.590;-122.498;2023-09-19T01:28:34;101320.14;;;24.67;29.99
50632;BME280;49583;45.590;-122.498;2023-09-19T01:30:50;101320.25;;;24.59;30.22
50632;BME280;49583;45.590;-122.498;2023-09-19T01:33:08;101315.63;;;24.52;30.40
50632;BME280;49583;45.590;-122.498;2023-09-19T01:35:21;101312.21;;;24.46;30.43
50632;BME280;49583;45.590;-122.498;2023-09-19T01:37:34;101314.94;;;24.42;30.61
50632;BME280;49583;45.590;-122.498;2023-09-19T01:39:49;101313.39;;;24.34;30.61
50632;BME280;49583;45.590;-122.498;2023-09-19T01:42:05;101310.52;;;24.24;30.83
50632;BME280;49583;45.590;-122.498;2023-09-19T01:44:29;101312.73;;;24.18;30.99
50632;BME280;49583;45.590;-122.498;2023-09-19T01:46:44;101310.92;;;24.10;30.99
50632;BME280;49583;45.590;-122.498;2023-09-19T01:49:12;101309.97;;;24.03;31.17
50632;BME280;49583;45.590;-122.498;2023-09-19T01:51:43;101309.70;;;23.94;31.36
50632;BME280;49583;45.590;-122.498;2023-09-19T01:54:11;101311.02;;;23.86;31.40
50632;BME280;49583;45.590;-122.498;2023-09-19T01:56:28;101311.67;;;23.79;31.52
50632;BME280;49583;45.590;-122.498;2023-09-19T01:58:49;101311.66;;;23.71;31.57
50632;BME280;49583;45.590;-122.498;2023-09-19T02:01:03;101311.85;;;23.64;31.85
50632;BME280;49583;45.590;-122.498;2023-09-19T02:03:19;101311.04;;;23.57;31.79
50632;BME280;49583;45.590;-122.498;2023-09-19T02:05:33;101313.23;;;23.52;31.96
50632;BME280;49583;45.590;-122.498;2023-09-19T02:07:46;101313.32;;;23.47;31.76
50632;BME280;49583;45.590;-122.498;2023-09-19T02:09:59;101313.04;;;23.37;31.78
50632;BME280;49583;45.590;-122.498;2023-09-19T02:12:14;101314.58;;;23.28;31.86
50632;BME280;49583;45.590;-122.498;2023-09-19T02:14:27;101316.10;;;23.21;32.09
50632;BME280;49583;45.590;-122.498;2023-09-19T02:16:40;101323.04;;;23.13;32.11
50632;BME280;49583;45.590;-122.498;2023-09-19T02:18:53;101325.64;;;23.06;32.51
50632;BME280;49583;45.590;-122.498;2023-09-19T02:21:06;101325.60;;;22.96;32.63
50632;BME280;49583;45.590;-122.498;2023-09-19T02:23:20;101329.83;;;22.88;32.63
50632;BME280;49583;45.590;-122.498;2023-09-19T02:25:33;101330.34;;;22.83;32.79
50632;BME280;49583;45.590;-122.498;2023-09-19T02:27:46;101332.49;;;22.78;32.88
50632;BME280;49583;45.590;-122.498;2023-09-19T02:30:00;101332.48;;;22.74;32.79
50632;BME280;49583;45.590;-122.498;2023-09-19T02:32:14;101333.88;;;22.66;33.11
50632;BME280;49583;45.590;-122.498;2023-09-19T02:34:29;101334.70;;;22.60;33.10
50632;BME280;49583;45.590;-122.498;2023-09-19T02:36:44;101332.91;;;22.53;33.00
50632;BME280;49583;45.590;-122.498;2023-09-19T02:38:57;101335.33;;;22.47;32.99
50632;BME280;49583;45.590;-122.498;2023-09-19T02:41:11;101341.67;;;22.40;33.25
50632;BME280;49583;45.590;-122.498;2023-09-19T02:43:23;101347.42;;;22.35;33.17
50632;BME280;49583;45.590;-122.498;2023-09-19T02:45:36;101351.28;;;22.28;33.22
50632;BME280;49583;45.590;-122.498;2023-09-19T02:47:49;101355.36;;;22.22;33.35
50632;BME280;49583;45.590;-122.498;2023-09-19T02:50:02;101355.48;;;22.14;33.51
50632;BME280;49583;45.590;-122.498;2023-09-19T02:52:16;101362.00;;;22.05;33.63
50632;BME280;49583;45.590;-122.498;2023-09-19T02:54:29;101362.11;;;21.99;33.78
50632;BME280;49583;45.590;-122.498;2023-09-19T02:56:42;101366.45;;;21.93;33.79
50632;BME280;49583;45.590;-122.498;2023-09-19T02:58:55;101374.19;;;21.86;33.81
50632;BME280;49583;45.590;-122.498;2023-09-19T03:01:15;101380.83;;;21.79;33.94
50632;BME280;49583;45.590;-122.498;2023-09-19T03:03:29;101384.15;;;21.69;34.15
50632;BME280;49583;45.590;-122.498;2023-09-19T03:05:42;101385.08;;;21.58;34.28
50632;BME280;49583;45.590;-122.498;2023-09-19T03:08:03;101389.55;;;21.52;34.39
50632;BME280;49583;45.590;-122.498;2023-09-19T03:10:17;101391.77;;;21.45;34.56
50632;BME280;49583;45.590;-122.498;2023-09-19T03:12:30;101394.48;;;21.37;34.53
50632;BME280;49583;45.590;-122.498;2023-09-19T03:14:47;101396.73;;;21.30;34.87
50632;BME280;49583;45.590;-122.498;2023-09-19T03:17:00;101401.80;;;21.24;34.86
50632;BME280;49583;45.590;-122.498;2023-09-19T03:19:15;101398.77;;;21.19;34.98
50632;BME280;49583;45.590;-122.498;2023-09-19T03:21:28;101403.35;;;21.11;35.14
50632;BME280;49583;45.590;-122.498;2023-09-19T03:23:41;101396.50;;;21.03;35.23
50632;BME280;49583;45.590;-122.498;2023-09-19T03:25:56;101403.14;;;20.99;35.24
50632;BME280;49583;45.590;-122.498;2023-09-19T03:28:10;101403.84;;;20.93;35.33
50632;BME280;49583;45.590;-122.498;2023-09-19T03:30:23;101411.63;;;20.87;35.49
50632;BME280;49583;45.590;-122.498;2023-09-19T03:32:46;101415.27;;;20.80;35.50
50632;BME280;49583;45.590;-122.498;2023-09-19T03:35:01;101421.21;;;20.73;35.60
50632;BME280;49583;45.590;-122.498;2023-09-19T03:37:16;101419.05;;;20.65;35.76
50632;BME280;49583;45.590;-122.498;2023-09-19T03:39:29;101424.02;;;20.60;35.83
50632;BME280;49583;45.590;-122.498;2023-09-19T03:41:42;101425.41;;;20.55;35.94
50632;BME280;49583;45.590;-122.498;2023-09-19T03:43:56;101426.41;;;20.49;36.02
50632;BME280;49583;45.590;-122.498;2023-09-19T03:46:08;101425.27;;;20.43;36.14
50632;BME280;49583;45.590;-122.498;2023-09-19T03:48:27;101423.80;;;20.36;36.15
50632;BME280;49583;45.590;-122.498;2023-09-19T03:50:41;101421.83;;;20.30;36.36
50632;BME280;49583;45.590;-122.498;2023-09-19T03:52:58;101424.33;;;20.23;36.38
50632;BME280;49583;45.590;-122.498;2023-09-19T03:55:13;101424.70;;;20.17;36.41
50632;BME280;49583;45.590;-122.498;2023-09-19T03:57:26;101430.14;;;20.10;36.45
50632;BME280;49583;45.590;-122.498;2023-09-19T03:59:43;101432.55;;;20.04;36.58
50632;BME280;49583;45.590;-122.498;2023-09-19T04:01:57;101431.33;;;19.96;36.72
50632;BME280;49583;45.590;-122.498;2023-09-19T04:04:11;101433.11;;;19.87;36.76
50632;BME280;49583;45.590;-122.498;2023-09-19T04:06:24;101434.17;;;19.78;36.96
50632;BME280;49583;45.590;-122.498;2023-09-19T04:08:37;101435.34;;;19.71;37.07
50632;BME280;49583;45.590;-122.498;2023-09-19T04:10:50;101434.73;;;19.65;37.15
50632;BME280;49583;45.590;-122.498;2023-09-19T04:13:03;101432.36;;;19.59;37.23
50632;BME280;49583;45.590;-122.498;2023-09-19T04:15:17;101428.12;;;19.51;37.33
50632;BME280;49583;45.590;-122.498;2023-09-19T04:17:35;101428.90;;;19.45;37.41
50632;BME280;49583;45.590;-122.498;2023-09-19T04:19:48;101436.92;;;19.41;37.45
50632;BME280;49583;45.590;-122.498;2023-09-19T04:22:00;101439.80;;;19.36;37.66
50632;BME280;49583;45.590;-122.498;2023-09-19T04:24:14;101440.27;;;19.31;37.70
50632;BME280;49583;45.590;-122.498;2023-09-19T04:26:29;101439.02;;;19.27;37.86
50632;BME280;49583;45.590;-122.498;2023-09-19T04:28:43;101442.50;;;19.22;37.99
50632;BME280;49583;45.590;-122.498;2023-09-19T04:30:59;101441.81;;;19.18;38.08
50632;BME280;49583;45.590;-122.498;2023-09-19T04:33:12;101440.54;;;19.14;38.13
50632;BME280;49583;45.590;-122.498;2023-09-19T04:35:26;101442.38;;;19.10;38.15
50632;BME280;49583;45.590;-122.498;2023-09-19T04:37:41;101440.71;;;19.05;38.36
50632;BME280;49583;45.590;-122.498;2023-09-19T04:39:54;101440.25;;;18.98;38.43
50632;BME280;49583;45.590;-122.498;2023-09-19T04:42:11;101443.04;;;18.96;38.41
50632;BME280;49583;45.590;-122.498;2023-09-19T04:44:25;101444.69;;;18.91;38.53
50632;BME280;49583;45.590;-122.498;2023-09-19T04:46:38;101441.53;;;18.87;38.66
50632;BME280;49583;45.590;-122.498;2023-09-19T04:48:54;101439.07;;;18.81;38.79
50632;BME280;49583;45.590;-122.498;2023-09-19T04:51:07;101439.23;;;18.74;38.86
50632;BME280;49583;45.590;-122.498;2023-09-19T04:53:20;101438.76;;;18.68;38.84
50632;BME280;49583;45.590;-122.498;2023-09-19T04:55:33;101441.29;;;18.62;38.87
50632;BME280;49583;45.590;-122.498;2023-09-19T04:57:47;101441.10;;;18.55;39.11
50632;BME280;49583;45.590;-122.498;2023-09-19T05:00:00;101438.24;;;18.47;39.32
50632;BME280;49583;45.590;-122.498;2023-09-19T05:02:13;101436.17;;;18.41;39.34
50632;BME280;49583;45.590;-122.498;2023-09-19T05:04:29;101442.10;;;18.37;39.53
50632;BME280;49583;45.590;-122.498;2023-09-19T05:06:43;101439.81;;;18.33;39.59
50632;BME280;49583;45.590;-122.498;2023-09-19T05:08:56;101438.44;;;18.29;39.79
50632;BME280;49583;45.590;-122.498;2023-09-19T05:11:10;101443.91;;;18.25;39.84
50632;BME280;49583;45.590;-122.498;2023-09-19T05:13:23;101442.31;;;18.20;39.96
50632;BME280;49583;45.590;-122.498;2023-09-19T05:15:37;101441.43;;;18.16;40.07
50632;BME280;49583;45.590;-122.498;2023-09-19T05:17:52;101443.23;;;18.12;40.26
50632;BME280;49583;45.590;-122.498;2023-09-19T05:20:11;101444.89;;;18.07;40.30
50632;BME280;49583;45.590;-122.498;2023-09-19T05:22:38;101441.09;;;18.02;40.46
50632;BME280;49583;45.590;-122.498;2023-09-19T05:24:51;101441.14;;;17.98;40.65
50632;BME280;49583;45.590;-122.498;2023-09-19T05:27:04;101446.04;;;17.93;40.73
50632;BME280;49583;45.590;-122.498;2023-09-19T05:29:17;101448.55;;;17.88;40.86
50632;BME280;49583;45.590;-122.498;2023-09-19T05:31:30;101444.80;;;17.82;41.16
50632;BME280;49583;45.590;-122.498;2023-09-19T05:33:43;101441.39;;;17.78;41.13
50632;BME280;49583;45.590;-122.498;2023-09-19T05:35:56;101440.09;;;17.74;41.41
50632;BME280;49583;45.590;-122.498;2023-09-19T05:38:13;101439.55;;;17.73;41.57
50632;BME280;49583;45.590;-122.498;2023-09-19T05:40:32;101438.59;;;17.70;41.65
50632;BME280;49583;45.590;-122.498;2023-09-19T05:42:45;101439.27;;;17.65;41.70
50632;BME280;49583;45.590;-122.498;2023-09-19T05:45:00;101439.05;;;17.60;41.79
50632;BME280;49583;45.590;-122.498;2023-09-19T05:47:24;101442.14;;;17.56;41.82
50632;BME280;49583;45.590;-122.498;2023-09-19T05:49:37;101442.59;;;17.53;42.06
50632;BME280;49583;45.590;-122.498;2023-09-19T05:51:51;101444.71;;;17.49;42.21
50632;BME280;49583;45.590;-122.498;2023-09-19T05:54:05;101443.25;;;17.44;42.33
50632;BME280;49583;45.590;-122.498;2023-09-19T05:56:18;101444.27;;;17.41;42.44
50632;BME280;49583;45.590;-122.498;2023-09-19T05:58:30;101442.52;;;17.38;42.52
50632;BME280;49583;45.590;-122.498;2023-09-19T06:00:44;101439.32;;;17.36;42.68
50632;BME280;49583;45.590;-122.498;2023-09-19T06:03:01;101440.42;;;17.32;42.72
50632;BME280;49583;45.590;-122.498;2023-09-19T06:05:14;101439.51;;;17.26;42.80
50632;BME280;49583;45.590;-122.498;2023-09-19T06:07:27;101445.83;;;17.23;42.90
50632;BME280;49583;45.590;-122.498;2023-09-19T06:09:50;101446.66;;;17.18;43.03
50632;BME280;49583;45.590;-122.498;2023-09-19T06:12:02;101446.86;;;17.14;43.07
50632;BME280;49583;45.590;-122.498;2023-09-19T06:14:19;101441.55;;;17.10;43.28
50632;BME280;49583;45.590;-122.498;2023-09-19T06:16:34;101440.71;;;17.05;43.34
50632;BME280;49583;45.590;-122.498;2023-09-19T06:18:48;101441.10;;;17.02;43.51
50632;BME280;49583;45.590;-122.498;2023-09-19T06:21:03;101439.56;;;16.98;43.63
50632;BME280;49583;45.590;-122.498;2023-09-19T06:23:17;101436.47;;;16.95;43.71
50632;BME280;49583;45.590;-122.498;2023-09-19T06:25:32;101438.23;;;16.91;43.88
50632;BME280;49583;45.590;-122.498;2023-09-19T06:27:44;101430.38;;;16.86;43.84
50632;BME280;49583;45.590;-122.498;2023-09-19T06:29:57;101429.25;;;16.82;44.02
50632;BME280;49583;45.590;-122.498;2023-09-19T06:32:12;101427.63;;;16.79;44.13
50632;BME280;49583;45.590;-122.498;2023-09-19T06:34:25;101432.14;;;16.77;44.16
50632;BME280;49583;45.590;-122.498;2023-09-19T06:36:37;101432.02;;;16.74;44.36
50632;BME280;49583;45.590;-122.498;2023-09-19T06:38:53;101432.96;;;16.72;44.46
50632;BME280;49583;45.590;-122.498;2023-09-19T06:41:06;101431.58;;;16.68;44.51
50632;BME280;49583;45.590;-122.498;2023-09-19T06:43:19;101431.22;;;16.64;44.60
50632;BME280;49583;45.590;-122.498;2023-09-19T06:45:32;101427.93;;;16.60;44.68
50632;BME280;49583;45.590;-122.498;2023-09-19T06:47:45;101422.61;;;16.57;44.81
50632;BME280;49583;45.590;-122.498;2023-09-19T06:50:06;101424.88;;;16.53;45.01
50632;BME280;49583;45.590;-122.498;2023-09-19T06:52:23;101426.17;;;16.49;44.98
50632;BME280;49583;45.590;-122.498;2023-09-19T06:54:40;101424.23;;;16.45;45.03
50632;BME280;49583;45.590;-122.498;2023-09-19T06:56:53;101425.47;;;16.41;45.13
50632;BME280;49583;45.590;-122.498;2023-09-19T06:59:07;101426.79;;;16.38;45.31
50632;BME280;49583;45.590;-122.498;2023-09-19T07:01:20;101423.42;;;16.34;45.45
50632;BME280;49583;45.590;-122.498;2023-09-19T07:03:36;101423.69;;;16.29;45.42
50632;BME280;49583;45.590;-122.498;2023-09-19T07:05:51;101426.16;;;16.23;45.53
50632;BME280;49583;45.590;-122.498;2023-09-19T07:08:09;101426.98;;;16.19;45.58
50632;BME280;49583;45.590;-122.498;2023-09-19T07:10:23;101425.66;;;16.13;45.69
50632;BME280;49583;45.590;-122.498;2023-09-19T07:12:37;101426.41;;;16.09;45.84
50632;BME280;49583;45.590;-122.498;2023-09-19T07:15:01;101429.52;;;16.06;45.97
50632;BME280;49583;45.590;-122.498;2023-09-19T07:17:16;101425.84;;;16.00;46.03
50632;BME280;49583;45.590;-122.498;2023-09-19T07:19:33;101429.89;;;15.97;46.09
50632;BME280;49583;45.590;-122.498;2023-09-19T07:21:46;101431.66;;;15.92;46.16
50632;BME280;49583;45.590;-122.498;2023-09-19T07:24:02;101427.73;;;15.87;46.27
50632;BME280;49583;45.590;-122.498;2023-09-19T07:26:14;101428.70;;;15.82;46.45
50632;BME280;49583;45.590;-122.498;2023-09-19T07:28:27;101429.77;;;15.77;46.46
50632;BME280;49583;45.590;-122.498;2023-09-19T07:30:43;101430.36;;;15.75;46.57
50632;BME280;49583;45.590;-122.498;2023-09-19T07:32:56;101433.00;;;15.72;46.59
50632;BME280;49583;45.590;-122.498;2023-09-19T07:35:10;101435.73;;;15.70;46.65
50632;BME280;49583;45.590;-122.498;2023-09-19T07:37:23;101438.95;;;15.68;46.72
50632;BME280;49583;45.590;-122.498;2023-09-19T07:39:37;101444.42;;;15.64;46.70
50632;BME280;49583;45.590;-122.498;2023-09-19T07:41:51;101452.04;;;15.61;46.83
50632;BME280;49583;45.590;-122.498;2023-09-19T07:44:07;101456.09;;;15.59;46.92
50632;BME280;49583;45.590;-122.498;2023-09-19T07:46:27;101447.11;;;15.54;47.08
50632;BME280;49583;45.590;-122.498;2023-09-19T07:48:41;101453.05;;;15.54;47.14
50632;BME280;49583;45.590;-122.498;2023-09-19T07:51:04;101452.80;;;15.50;47.07
50632;BME280;49583;45.590;-122.498;2023-09-19T07:53:17;101449.14;;;15.47;47.21
50632;BME280;49583;45.590;-122.498;2023-09-19T07:55:32;101448.69;;;15.44;47.25
50632;BME280;49583;45.590;-122.498;2023-09-19T07:57:45;101447.63;;;15.40;47.30
50632;BME280;49583;45.590;-122.498;2023-09-19T08:00:01;101449.09;;;15.38;47.45
50632;BME280;49583;45.590;-122.498;2023-09-19T08:02:21;101450.61;;;15.35;47.60
50632;BME280;49583;45.590;-122.498;2023-09-19T08:04:34;101446.51;;;15.33;47.57
50632;BME280;49583;45.590;-122.498;2023-09-19T08:06:47;101445.44;;;15.31;47.68
50632;BME280;49583;45.590;-122.498;2023-09-19T08:09:02;101446.66;;;15.27;47.73
50632;BME280;49583;45.590;-122.498;2023-09-19T08:11:17;101452.55;;;15.28;47.96
50632;BME280;49583;45.590;-122.498;2023-09-19T08:13:34;101451.73;;;15.25;47.99
50632;BME280;49583;45.590;-122.498;2023-09-19T08:15:54;101454.73;;;15.24;47.85
50632;BME280;49583;45.590;-122.498;2023-09-19T08:18:09;101462.02;;;15.21;48.00
50632;BME280;49583;45.590;-122.498;2023-09-19T08:20:22;101465.81;;;15.18;48.06
50632;BME280;49583;45.590;-122.498;2023-09-19T08:22:35;101468.59;;;15.14;48.07
50632;BME280;49583;45.590;-122.498;2023-09-19T08:24:48;101464.66;;;15.10;48.30
50632;BME280;49583;45.590;-122.498;2023-09-19T08:27:00;101470.24;;;15.08;48.51
50632;BME280;49583;45.590;-122.498;2023-09-19T08:29:26;101470.41;;;15.05;48.74
50632;BME280;49583;45.590;-122.498;2023-09-19T08:31:42;101470.46;;;15.01;48.85
50632;BME280;49583;45.590;-122.498;2023-09-19T08:33:55;101471.33;;;14.97;48.70
50632;BME280;49583;45.590;-122.498;2023-09-19T08:36:08;101470.77;;;14.92;49.05
50632;BME280;49583;45.590;-122.498;2023-09-19T08:38:26;101473.77;;;14.88;49.10
50632;BME280;49583;45.590;-122.498;2023-09-19T08:40:41;101470.96;;;14.84;49.24
50632;BME280;49583;45.590;-122.498;2023-09-19T08:42:56;101468.45;;;14.80;49.40
50632;BME280;49583;45.590;-122.498;2023-09-19T08:45:10;101468.98;;;14.75;49.49
50632;BME280;49583;45.590;-122.498;2023-09-19T08:47:31;101472.53;;;14.70;49.57
50632;BME280;49583;45.590;-122.498;2023-09-19T08:49:56;101473.65;;;14.67;49.70
50632;BME280;49583;45.590;-122.498;2023-09-19T08:52:19;101470.03;;;14.58;49.83
50632;BME280;49583;45.590;-122.498;2023-09-19T08:54:37;101475.14;;;14.57;49.91
50632;BME280;49583;45.590;-122.498;2023-09-19T08:56:54;101473.11;;;14.53;49.84
50632;BME280;49583;45.590;-122.498;2023-09-19T08:59:09;101479.03;;;14.50;50.04
50632;BME280;49583;45.590;-122.498;2023-09-19T09:01:23;101486.09;;;14.48;50.10
50632;BME280;49583;45.590;-122.498;2023-09-19T09:03:42;101486.17;;;14.44;50.19
50632;BME280;49583;45.590;-122.498;2023-09-19T09:05:58;101483.77;;;14.39;50.19
50632;BME280;49583;45.590;-122.498;2023-09-19T09:08:12;101493.13;;;14.35;50.19
50632;BME280;49583;45.590;-122.498;2023-09-19T09:10:27;101492.12;;;14.31;50.46
50632;BME280;49583;45.590;-122.498;2023-09-19T09:12:40;101496.60;;;14.28;50.52
50632;BME280;49583;45.590;-122.498;2023-09-19T09:14:54;101497.38;;;14.26;50.75
50632;BME280;49583;45.590;-122.498;2023-09-19T09:17:07;101500.00;;;14.23;50.70
50632;BME280;49583;45.590;-122.498;2023-09-19T09:19:21;101497.33;;;14.20;50.72
50632;BME280;49583;45.590;-122.498;2023-09-19T09:21:35;101502.95;;;14.18;50.90
50632;BME280;49583;45.590;-122.498;2023-09-19T09:23:49;101502.02;;;14.14;50.87
50632;BME280;49583;45.590;-122.498;2023-09-19T09:26:02;101501.79;;;14.11;51.13
50632;BME280;49583;45.590;-122.498;2023-09-19T09:28:21;101505.05;;;14.08;51.20
50632;BME280;49583;45.590;-122.498;2023-09-19T09:30:37;101506.52;;;14.07;51.38
50632;BME280;49583;45.590;-122.498;2023-09-19T09:33:09;101507.60;;;14.06;51.49
50632;BME280;49583;45.590;-122.498;2023-09-19T09:35:23;101507.36;;;14.03;51.42
50632;BME280;49583;45.590;-122.498;2023-09-19T09:37:37;101510.73;;;14.01;51.43
50632;BME280;49583;45.590;-122.498;2023-09-19T09:39:56;101515.93;;;13.98;51.69
50632;BME280;49583;45.590;-122.498;2023-09-19T09:42:31;101513.17;;;13.95;51.82
50632;BME280;49583;45.590;-122.498;2023-09-19T09:44:45;101517.77;;;13.92;51.88
50632;BME280;49583;45.590;-122.498;2023-09-19T09:47:43;101521.16;;;13.89;51.90
50632;BME280;49583;45.590;-122.498;2023-09-19T09:50:02;101526.98;;;13.89;52.00
50632;BME280;49583;45.590;-122.498;2023-09-19T09:52:27;101529.83;;;13.86;52.11
50632;BME280;49583;45.590;-122.498;2023-09-19T09:55:00;101539.29;;;13.83;52.20
50632;BME280;49583;45.590;-122.498;2023-09-19T09:57:15;101538.66;;;13.80;52.13
50632;BME280;49583;45.590;-122.498;2023-09-19T09:59:55;101545.52;;;13.77;52.20
50632;BME280;49583;45.590;-122.498;2023-09-19T10:02:09;101545.31;;;13.75;52.17
50632;BME280;49583;45.590;-122.498;2023-09-19T10:04:31;101549.80;;;13.71;52.29
50632;BME280;49583;45.590;-122.498;2023-09-19T10:06:50;101554.25;;;13.67;52.40
50632;BME280;49583;45.590;-122.498;2023-09-19T10:09:08;101560.07;;;13.63;52.42
50632;BME280;49583;45.590;-122.498;2023-09-19T10:11:27;101556.68;;;13.59;52.58
50632;BME280;49583;45.590;-122.498;2023-09-19T10:13:41;101555.08;;;13.55;52.52
50632;BME280;49583;45.590;-122.498;2023-09-19T10:16:03;101550.66;;;13.51;52.62
50632;BME280;49583;45.590;-122.498;2023-09-19T10:18:22;101553.56;;;13.47;52.92
50632;BME280;49583;45.590;-122.498;2023-09-19T10:20:38;101551.85;;;13.44;53.12
50632;BME280;49583;45.590;-122.498;2023-09-19T10:23:07;101552.66;;;13.42;53.45
50632;BME280;49583;45.590;-122.498;2023-09-19T10:25:27;101553.97;;;13.41;53.59
50632;BME280;49583;45.590;-122.498;2023-09-19T10:27:41;101553.10;;;13.41;53.83
50632;BME280;49583;45.590;-122.498;2023-09-19T10:29:56;101552.81;;;13.38;53.68
50632;BME280;49583;45.590;-122.498;2023-09-19T10:32:38;101551.11;;;13.32;53.92
50632;BME280;49583;45.590;-122.498;2023-09-19T10:34:49;101548.25;;;13.25;53.83
50632;BME280;49583;45.590;-122.498;2023-09-19T10:37:06;101549.79;;;13.21;53.77
50632;BME280;49583;45.590;-122.498;2023-09-19T10:39:19;101551.89;;;13.16;53.88
50632;BME280;49583;45.590;-122.498;2023-09-19T10:41:34;101556.15;;;13.14;53.85
50632;BME280;49583;45.590;-122.498;2023-09-19T10:43:48;101559.17;;;13.11;54.19
50632;BME280;49583;45.590;-122.498;2023-09-19T10:46:03;101560.30;;;13.09;54.01
50632;BME280;49583;45.590;-122.498;2023-09-19T10:48:21;101558.16;;;13.07;54.13
50632;BME280;49583;45.590;-122.498;2023-09-19T10:50:48;101556.02;;;13.04;54.15
50632;BME280;49583;45.590;-122.498;2023-09-19T10:53:05;101561.61;;;13.01;54.29
50632;BME280;49583;45.590;-122.498;2023-09-19T10:55:22;101556.55;;;12.96;54.18
50632;BME280;49583;45.590;-122.498;2023-09-19T10:57:35;101556.53;;;12.96;54.22
50632;BME280;49583;45.590;-122.498;2023-09-19T11:03:28;101554.30;;;12.95;54.41
50632;BME280;49583;45.590;-122.498;2023-09-19T11:05:43;101550.92;;;12.92;54.25
50632;BME280;49583;45.590;-122.498;2023-09-19T11:08:13;101552.73;;;12.92;54.48
50632;BME280;49583;45.590;-122.498;2023-09-19T11:10:47;101545.75;;;12.89;54.48
50632;BME280;49583;45.590;-122.498;2023-09-19T11:13:01;101543.77;;;12.89;54.53
50632;BME280;49583;45.590;-122.498;2023-09-19T11:18:55;101546.27;;;12.85;54.56
50632;BME280;49583;45.590;-122.498;2023-09-19T11:24:31;101545.06;;;12.81;54.77
50632;BME280;49583;45.590;-122.498;2023-09-19T11:26:47;101547.05;;;12.80;54.68
50632;BME280;49583;45.590;-122.498;2023-09-19T11:29:27;101550.41;;;12.79;54.97
50632;BME280;49583;45.590;-122.498;2023-09-19T11:31:47;101548.63;;;12.76;54.88
50632;BME280;49583;45.590;-122.498;2023-09-19T11:36:43;101552.37;;;12.72;55.14
50632;BME280;49583;45.590;-122.498;2023-09-19T11:39:02;101556.89;;;12.71;55.17